sensor_id;sensor_type;location;lat;lon;timestamp;pressure;altitude;pressure_sealevel;temperature;humidity
24962;BME280;12992;50.884;13.668;2022-07-29T00:02:20;97369.63;;;13.77;86.96
24962;BME280;12992;50.884;13.668;2022-07-29T00:04:46;97380.84;;;13.91;85.68
24962;BME280;12992;50.884;13.668;2022-07-29T00:07:11;97363.09;;;13.78;87.83
24962;BME280;12992;50.884;13.668;2022-07-29T00:09:36;97374.03;;;13.73;86.91
24962;BME280;12992;50.884;13.668;2022-07-29T00:12:02;97366.34;;;13.75;86.70
24962;BME280;12992;50.884;13.668;2022-07-29T00:14:28;97364.44;;;13.81;86.40
24962;BME280;12992;50.884;13.668;2022-07-29T00:16:53;97372.09;;;13.89;85.50
24962;BME280;12992;50.884;13.668;2022-07-29T00:19:19;97348.03;;;13.71;86.46
24962;BME280;12992;50.884;13.668;2022-07-29T00:21:44;97337.91;;;13.56;88.23
24962;BME280;12992;50.884;13.668;2022-07-29T00:24:09;97349.94;;;13.55;87.97
24962;BME280;12992;50.884;13.668;2022-07-29T00:26:35;97362.53;;;13.71;87.30
24962;BME280;12992;50.884;13.668;2022-07-29T00:29:02;97360.34;;;13.78;86.82
24962;BME280;12992;50.884;13.668;2022-07-29T00:31:28;97331.31;;;13.67;87.13
24962;BME280;12992;50.884;13.668;2022-07-29T00:33:53;97331.34;;;13.57;88.28
24962;BME280;12992;50.884;13.668;2022-07-29T00:36:19;97342.28;;;13.62;88.27
24962;BME280;12992;50.884;13.668;2022-07-29T00:38:47;97338.75;;;13.62;87.50
24962;BME280;12992;50.884;13.668;2022-07-29T00:41:12;97336.53;;;13.58;87.88
24962;BME280;12992;50.884;13.668;2022-07-29T00:43:38;97334.09;;;13.62;87.87
24962;BME280;12992;50.884;13.668;2022-07-29T00:46:03;97328.03;;;13.60;89.64
24962;BME280;12992;50.884;13.668;2022-07-29T00:48:28;97332.44;;;13.51;89.98
24962;BME280;12992;50.884;13.668;2022-07-29T00:50:56;97343.09;;;13.73;88.28
24962;BME280;12992;50.884;13.668;2022-07-29T00:53:23;97334.34;;;13.71;88.23
24962;BME280;12992;50.884;13.668;2022-07-29T00:55:49;97314.34;;;13.60;88.96
24962;BME280;12992;50.884;13.668;2022-07-29T00:58:15;97322.03;;;13.58;88.96
24962;BME280;12992;50.884;13.668;2022-07-29T01:00:40;97323.13;;;13.57;90.10
24962;BME280;12992;50.884;13.668;2022-07-29T01:03:06;97315.19;;;13.66;87.67
24962;BME280;12992;50.884;13.668;2022-07-29T01:05:32;97304.00;;;13.52;89.33
24962;BME280;12992;50.884;13.668;2022-07-29T01:07:58;97307.25;;;13.49;90.05
24962;BME280;12992;50.884;13.668;2022-07-29T01:10:25;97314.38;;;13.50;90.02
24962;BME280;12992;50.884;13.668;2022-07-29T01:12:52;97314.69;;;13.43;90.71
24962;BME280;12992;50.884;13.668;2022-07-29T01:15:18;97317.94;;;13.40;91.91
24962;BME280;12992;50.884;13.668;2022-07-29T01:17:47;97310.56;;;13.41;91.59
24962;BME280;12992;50.884;13.668;2022-07-29T01:31:06;97290.84;;;13.33;91.38
24962;BME280;12992;50.884;13.668;2022-07-29T01:33:38;97287.31;;;13.23;93.04
24962;BME280;12992;50.884;13.668;2022-07-29T01:37:03;97293.28;;;13.15;93.72
24962;BME280;12992;50.884;13.668;2022-07-29T01:39:10;97286.44;;;13.07;94.09
24962;BME280;12992;50.884;13.668;2022-07-29T01:41:39;97298.53;;;13.21;92.97
24962;BME280;12992;50.884;13.668;2022-07-29T01:44:16;97294.97;;;13.21;93.12
24962;BME280;12992;50.884;13.668;2022-07-29T01:46:49;97294.38;;;13.14;94.78
24962;BME280;12992;50.884;13.668;2022-07-29T01:49:20;97295.75;;;13.11;94.72
24962;BME280;12992;50.884;13.668;2022-07-29T01:51:52;97291.38;;;13.05;94.89
24962;BME280;12992;50.884;13.668;2022-07-29T01:54:37;97295.75;;;13.01;96.83
24962;BME280;12992;50.884;13.668;2022-07-29T01:57:06;97284.25;;;12.94;97.14
24962;BME280;12992;50.884;13.668;2022-07-29T01:59:34;97286.97;;;12.84;98.30
24962;BME280;12992;50.884;13.668;2022-07-29T02:02:00;97297.63;;;12.85;98.05
24962;BME280;12992;50.884;13.668;2022-07-29T02:04:27;97298.47;;;12.86;98.59
24962;BME280;12992;50.884;13.668;2022-07-29T02:06:57;97301.72;;;12.88;97.34
24962;BME280;12992;50.884;13.668;2022-07-29T02:09:24;97300.38;;;12.85;97.24
24962;BME280;12992;50.884;13.668;2022-07-29T02:11:52;97289.72;;;12.84;97.41
24962;BME280;12992;50.884;13.668;2022-07-29T02:14:20;97293.28;;;12.94;96.66
24962;BME280;12992;50.884;13.668;2022-07-29T02:16:48;97283.69;;;12.87;98.31
24962;BME280;12992;50.884;13.668;2022-07-29T02:19:17;97275.50;;;12.76;99.14
24962;BME280;12992;50.884;13.668;2022-07-29T02:21:44;97283.69;;;12.76;99.86
24962;BME280;12992;50.884;13.668;2022-07-29T02:24:11;97282.03;;;12.70;100.00
24962;BME280;12992;50.884;13.668;2022-07-29T02:26:38;97283.72;;;12.82;100.00
24962;BME280;12992;50.884;13.668;2022-07-29T02:29:06;97292.44;;;12.89;100.00
24962;BME280;12992;50.884;13.668;2022-07-29T02:31:34;97278.53;;;12.90;99.95
24962;BME280;12992;50.884;13.668;2022-07-29T02:34:03;97284.53;;;12.97;99.71
24962;BME280;12992;50.884;13.668;2022-07-29T02:36:31;97284.28;;;12.99;99.49
24962;BME280;12992;50.884;13.668;2022-07-29T02:38:57;97287.81;;;13.15;98.09
24962;BME280;12992;50.884;13.668;2022-07-29T02:41:42;97277.44;;;13.12;99.29
24962;BME280;12992;50.884;13.668;2022-07-29T02:44:11;97285.91;;;13.15;99.26
24962;BME280;12992;50.884;13.668;2022-07-29T02:46:37;97291.38;;;13.15;98.99
24962;BME280;12992;50.884;13.668;2022-07-29T02:49:17;97281.56;;;13.19;100.00
24962;BME280;12992;50.884;13.668;2022-07-29T02:51:48;97276.91;;;13.20;99.40
24962;BME280;12992;50.884;13.668;2022-07-29T02:54:22;97280.50;;;13.25;99.74
24962;BME280;12992;50.884;13.668;2022-07-29T02:56:49;97270.06;;;13.17;100.00
24962;BME280;12992;50.884;13.668;2022-07-29T02:59:21;97276.91;;;13.10;100.00
24962;BME280;12992;50.884;13.668;2022-07-29T03:01:47;97280.97;;;13.07;100.00
24962;BME280;12992;50.884;13.668;2022-07-29T03:04:14;97279.34;;;12.96;100.00
24962;BME280;12992;50.884;13.668;2022-07-29T03:06:42;97279.03;;;12.87;100.00
24962;BME280;12992;50.884;13.668;2022-07-29T03:09:10;97274.69;;;12.81;100.00
24962;BME280;12992;50.884;13.668;2022-07-29T03:11:35;97280.16;;;12.81;100.00
24962;BME280;12992;50.884;13.668;2022-07-29T03:14:02;97285.06;;;12.84;100.00
24962;BME280;12992;50.884;13.668;2022-07-29T03:16:28;97280.97;;;12.87;100.00
24962;BME280;12992;50.884;13.668;2022-07-29T03:18:54;97282.06;;;12.96;100.00
24962;BME280;12992;50.884;13.668;2022-07-29T03:21:19;97282.88;;;12.96;100.00
24962;BME280;12992;50.884;13.668;2022-07-29T03:23:44;97277.16;;;12.93;100.00
24962;BME280;12992;50.884;13.668;2022-07-29T03:26:10;97275.22;;;12.88;100.00
24962;BME280;12992;50.884;13.668;2022-07-29T03:28:36;97266.22;;;12.83;100.00
24962;BME280;12992;50.884;13.668;2022-07-29T03:31:01;97272.25;;;12.90;100.00
24962;BME280;12992;50.884;13.668;2022-07-29T03:33:27;97280.44;;;13.00;100.00
24962;BME280;12992;50.884;13.668;2022-07-29T03:35:54;97273.06;;;13.00;100.00
24962;BME280;12992;50.884;13.668;2022-07-29T03:38:20;97260.50;;;12.99;100.00
24962;BME280;12992;50.884;13.668;2022-07-29T03:40:54;97258.56;;;13.05;100.00
24962;BME280;12992;50.884;13.668;2022-07-29T03:43:22;97258.56;;;13.10;100.00
24962;BME280;12992;50.884;13.668;2022-07-29T03:45:51;97265.13;;;13.09;100.00
24962;BME280;12992;50.884;13.668;2022-07-29T03:48:20;97261.84;;;13.07;100.00
24962;BME280;12992;50.884;13.668;2022-07-29T03:50:47;97264.31;;;13.09;100.00
24962;BME280;12992;50.884;13.668;2022-07-29T03:53:13;97265.41;;;13.13;100.00
24962;BME280;12992;50.884;13.668;2022-07-29T03:55:44;97256.91;;;13.14;100.00
24962;BME280;12992;50.884;13.668;2022-07-29T03:58:11;97268.97;;;13.18;100.00
24962;BME280;12992;50.884;13.668;2022-07-29T04:00:37;97263.81;;;13.27;100.00
24962;BME280;12992;50.884;13.668;2022-07-29T04:03:04;97271.72;;;13.28;100.00
24962;BME280;12992;50.884;13.668;2022-07-29T04:05:29;97273.91;;;13.31;100.00
24962;BME280;12992;50.884;13.668;2022-07-29T04:07:54;97270.06;;;13.32;100.00
24962;BME280;12992;50.884;13.668;2022-07-29T04:10:20;97265.16;;;13.29;100.00
24962;BME280;12992;50.884;13.668;2022-07-29T04:12:45;97267.88;;;13.24;100.00
24962;BME280;12992;50.884;13.668;2022-07-29T04:15:11;97272.28;;;13.25;100.00
24962;BME280;12992;50.884;13.668;2022-07-29T04:17:36;97273.34;;;13.24;100.00
24962;BME280;12992;50.884;13.668;2022-07-29T04:20:03;97281.00;;;13.32;100.00
24962;BME280;12992;50.884;13.668;2022-07-29T04:22:29;97272.00;;;13.37;100.00
24962;BME280;12992;50.884;13.668;2022-07-29T04:24:54;97276.09;;;13.45;100.00
24962;BME280;12992;50.884;13.668;2022-07-29T04:27:19;97280.72;;;13.49;100.00
24962;BME280;12992;50.884;13.668;2022-07-29T04:29:45;97287.56;;;13.57;100.00
24962;BME280;12992;50.884;13.668;2022-07-29T04:32:10;97290.84;;;13.64;100.00
24962;BME280;12992;50.884;13.668;2022-07-29T04:34:35;97300.41;;;13.67;100.00
24962;BME280;12992;50.884;13.668;2022-07-29T04:37:01;97298.78;;;13.71;100.00
24962;BME280;12992;50.884;13.668;2022-07-29T04:39:26;97295.97;;;13.91;100.00
24962;BME280;12992;50.884;13.668;2022-07-29T04:41:51;97305.25;;;14.05;100.00
24962;BME280;12992;50.884;13.668;2022-07-29T04:44:17;97301.91;;;14.24;100.00
24962;BME280;12992;50.884;13.668;2022-07-29T04:46:42;97307.06;;;14.35;100.00
24962;BME280;12992;50.884;13.668;2022-07-29T04:49:07;97317.44;;;14.54;100.00
24962;BME280;12992;50.884;13.668;2022-07-29T04:51:33;97316.25;;;14.70;100.00
24962;BME280;12992;50.884;13.668;2022-07-29T04:53:59;97304.94;;;14.82;100.00
24962;BME280;12992;50.884;13.668;2022-07-29T04:56:24;97313.59;;;14.99;100.00
24962;BME280;12992;50.884;13.668;2022-07-29T04:58:49;97309.94;;;15.14;96.71
24962;BME280;12992;50.884;13.668;2022-07-29T05:01:15;97322.41;;;15.35;95.93
24962;BME280;12992;50.884;13.668;2022-07-29T05:03:41;97314.03;;;15.50;96.26
24962;BME280;12992;50.884;13.668;2022-07-29T05:06:06;97320.97;;;15.77;95.50
24962;BME280;12992;50.884;13.668;2022-07-29T05:08:31;97325.50;;;15.92;96.65
24962;BME280;12992;50.884;13.668;2022-07-29T05:10:57;97323.69;;;16.06;96.60
24962;BME280;12992;50.884;13.668;2022-07-29T05:13:22;97329.38;;;16.14;96.74
24962;BME280;12992;50.884;13.668;2022-07-29T05:15:47;97320.50;;;16.23;94.94
24962;BME280;12992;50.884;13.668;2022-07-29T05:18:13;97325.09;;;16.51;96.01
24962;BME280;12992;50.884;13.668;2022-07-29T05:20:39;97331.81;;;16.88;95.23
24962;BME280;12992;50.884;13.668;2022-07-29T05:23:04;97336.97;;;17.32;93.55
24962;BME280;12992;50.884;13.668;2022-07-29T05:25:29;97344.69;;;18.14;89.88
24962;BME280;12992;50.884;13.668;2022-07-29T05:27:55;97339.50;;;18.81;86.20
24962;BME280;12992;50.884;13.668;2022-07-29T05:30:21;97336.41;;;19.10;84.09
24962;BME280;12992;50.884;13.668;2022-07-29T05:32:47;97330.44;;;19.17;82.99
24962;BME280;12992;50.884;13.668;2022-07-29T05:35:13;97321.03;;;19.18;81.86
24962;BME280;12992;50.884;13.668;2022-07-29T05:37:38;97328.59;;;19.48;81.87
24962;BME280;12992;50.884;13.668;2022-07-29T05:40:04;97326.53;;;19.54;81.66
24962;BME280;12992;50.884;13.668;2022-07-29T05:42:30;97327.63;;;19.67;83.24
24962;BME280;12992;50.884;13.668;2022-07-29T05:44:55;97326.69;;;19.71;83.29
24962;BME280;12992;50.884;13.668;2022-07-29T05:47:21;97320.16;;;19.67;82.98
24962;BME280;12992;50.884;13.668;2022-07-29T05:49:47;97321.09;;;19.63;82.72
24962;BME280;12992;50.884;13.668;2022-07-29T05:52:12;97324.16;;;19.61;85.12
24962;BME280;12992;50.884;13.668;2022-07-29T05:54:38;97322.75;;;19.50;83.77
24962;BME280;12992;50.884;13.668;2022-07-29T05:57:04;97335.44;;;19.51;83.95
24962;BME280;12992;50.884;13.668;2022-07-29T05:59:30;97329.28;;;19.54;83.49
24962;BME280;12992;50.884;13.668;2022-07-29T06:01:56;97307.00;;;18.92;80.97
24962;BME280;12992;50.884;13.668;2022-07-29T06:04:22;97313.72;;;19.00;80.56
24962;BME280;12992;50.884;13.668;2022-07-29T06:06:47;97312.41;;;18.97;80.49
24962;BME280;12992;50.884;13.668;2022-07-29T06:09:12;97320.22;;;19.17;79.88
24962;BME280;12992;50.884;13.668;2022-07-29T06:11:38;97327.31;;;19.32;81.06
24962;BME280;12992;50.884;13.668;2022-07-29T06:14:03;97332.50;;;19.47;82.58
24962;BME280;12992;50.884;13.668;2022-07-29T06:16:28;97328.69;;;19.43;81.83
24962;BME280;12992;50.884;13.668;2022-07-29T06:18:54;97333.41;;;19.57;79.50
24962;BME280;12992;50.884;13.668;2022-07-29T06:21:19;97334.13;;;19.48;81.09
24962;BME280;12992;50.884;13.668;2022-07-29T06:23:44;97346.47;;;19.65;80.38
24962;BME280;12992;50.884;13.668;2022-07-29T06:26:10;97362.97;;;19.78;82.11
24962;BME280;12992;50.884;13.668;2022-07-29T06:28:35;97345.81;;;19.68;78.58
24962;BME280;12992;50.884;13.668;2022-07-29T06:31:01;97334.00;;;19.53;78.49
24962;BME280;12992;50.884;13.668;2022-07-29T06:33:26;97348.41;;;19.64;78.35
24962;BME280;12992;50.884;13.668;2022-07-29T06:35:52;97359.16;;;19.88;78.65
24962;BME280;12992;50.884;13.668;2022-07-29T06:38:17;97352.72;;;20.01;79.77
24962;BME280;12992;50.884;13.668;2022-07-29T06:40:43;97369.78;;;20.26;79.15
24962;BME280;12992;50.884;13.668;2022-07-29T06:43:32;97364.72;;;20.50;77.94
24962;BME280;12992;50.884;13.668;2022-07-29T06:46:04;97351.88;;;20.54;78.00
24962;BME280;12992;50.884;13.668;2022-07-29T06:48:30;97349.69;;;20.43;74.57
24962;BME280;12992;50.884;13.668;2022-07-29T06:50:55;97362.03;;;20.68;75.14
24962;BME280;12992;50.884;13.668;2022-07-29T06:53:21;97370.13;;;21.04;76.84
24962;BME280;12992;50.884;13.668;2022-07-29T06:55:46;97366.91;;;21.36;74.84
24962;BME280;12992;50.884;13.668;2022-07-29T06:58:12;97365.97;;;21.58;73.37
24962;BME280;12992;50.884;13.668;2022-07-29T07:00:39;97356.31;;;21.64;73.82
24962;BME280;12992;50.884;13.668;2022-07-29T07:03:04;97371.28;;;21.98;70.83
24962;BME280;12992;50.884;13.668;2022-07-29T07:05:29;97367.22;;;22.13;72.71
24962;BME280;12992;50.884;13.668;2022-07-29T07:07:55;97367.53;;;22.20;72.02
24962;BME280;12992;50.884;13.668;2022-07-29T07:10:20;97357.63;;;22.10;72.97
24962;BME280;12992;50.884;13.668;2022-07-29T07:12:45;97372.28;;;22.19;72.44
24962;BME280;12992;50.884;13.668;2022-07-29T07:15:11;97369.31;;;22.24;72.02
24962;BME280;12992;50.884;13.668;2022-07-29T07:17:36;97354.66;;;22.15;72.47
24962;BME280;12992;50.884;13.668;2022-07-29T07:20:04;97377.19;;;22.60;71.85
24962;BME280;12992;50.884;13.668;2022-07-29T07:22:30;97363.47;;;22.64;71.94
24962;BME280;12992;50.884;13.668;2022-07-29T07:24:55;97382.97;;;22.94;71.32
24962;BME280;12992;50.884;13.668;2022-07-29T07:27:20;97372.28;;;23.04;70.91
24962;BME280;12992;50.884;13.668;2022-07-29T07:29:45;97360.63;;;23.11;69.95
24962;BME280;12992;50.884;13.668;2022-07-29T07:32:11;97360.44;;;22.86;70.44
24962;BME280;12992;50.884;13.668;2022-07-29T07:34:38;97366.25;;;23.02;70.80
24962;BME280;12992;50.884;13.668;2022-07-29T07:37:03;97376.78;;;23.17;70.28
24962;BME280;12992;50.884;13.668;2022-07-29T07:39:28;97371.25;;;23.38;70.45
24962;BME280;12992;50.884;13.668;2022-07-29T07:41:54;97366.91;;;23.50;70.58
24962;BME280;12992;50.884;13.668;2022-07-29T07:44:19;97367.25;;;23.90;68.34
24962;BME280;12992;50.884;13.668;2022-07-29T07:46:44;97348.72;;;23.94;68.72
24962;BME280;12992;50.884;13.668;2022-07-29T07:49:10;97357.94;;;24.07;67.59
24962;BME280;12992;50.884;13.668;2022-07-29T07:51:36;97338.56;;;23.98;68.97
24962;BME280;12992;50.884;13.668;2022-07-29T07:54:01;97360.88;;;24.22;67.54
24962;BME280;12992;50.884;13.668;2022-07-29T07:56:26;97366.69;;;24.75;66.19
24962;BME280;12992;50.884;13.668;2022-07-29T07:58:52;97362.16;;;24.95;65.85
24962;BME280;12992;50.884;13.668;2022-07-29T08:01:17;97367.63;;;25.28;65.99
24962;BME280;12992;50.884;13.668;2022-07-29T08:03:44;97357.81;;;25.58;63.57
24962;BME280;12992;50.884;13.668;2022-07-29T08:06:09;97359.81;;;25.86;62.04
24962;BME280;12992;50.884;13.668;2022-07-29T08:08:35;97354.28;;;26.30;60.58
24962;BME280;12992;50.884;13.668;2022-07-29T08:11:00;97350.53;;;26.38;58.50
24962;BME280;12992;50.884;13.668;2022-07-29T08:13:27;97359.13;;;26.61;61.12
24962;BME280;12992;50.884;13.668;2022-07-29T08:15:53;97345.84;;;26.58;61.02
24962;BME280;12992;50.884;13.668;2022-07-29T08:18:23;97355.41;;;26.72;61.34
24962;BME280;12992;50.884;13.668;2022-07-29T08:20:49;97348.47;;;26.98;62.61
24962;BME280;12992;50.884;13.668;2022-07-29T08:23:14;97352.69;;;27.23;58.89
24962;BME280;12992;50.884;13.668;2022-07-29T08:25:40;97343.34;;;27.16;60.17
24962;BME280;12992;50.884;13.668;2022-07-29T08:28:06;97346.13;;;27.16;60.12
24962;BME280;12992;50.884;13.668;2022-07-29T08:30:32;97343.34;;;26.68;62.92
24962;BME280;12992;50.884;13.668;2022-07-29T08:32:58;97322.53;;;26.66;61.61
24962;BME280;12992;50.884;13.668;2022-07-29T08:35:24;97327.84;;;26.71;61.26
24962;BME280;12992;50.884;13.668;2022-07-29T08:37:50;97359.78;;;27.36;60.42
24962;BME280;12992;50.884;13.668;2022-07-29T08:40:16;97345.09;;;27.40;57.30
24962;BME280;12992;50.884;13.668;2022-07-29T08:42:41;97320.59;;;26.86;58.02
24962;BME280;12992;50.884;13.668;2022-07-29T08:45:07;97330.28;;;27.04;54.80
24962;BME280;12992;50.884;13.668;2022-07-29T08:47:33;97333.63;;;27.29;53.56
24962;BME280;12992;50.884;13.668;2022-07-29T08:49:58;97327.28;;;26.97;54.05
24962;BME280;12992;50.884;13.668;2022-07-29T08:52:29;97321.72;;;26.65;54.62
24962;BME280;12992;50.884;13.668;2022-07-29T08:54:58;97324.25;;;26.70;54.69
24962;BME280;12992;50.884;13.668;2022-07-29T08:57:24;97323.97;;;26.75;54.38
24962;BME280;12992;50.884;13.668;2022-07-29T08:59:52;97319.53;;;26.74;54.52
24962;BME280;12992;50.884;13.668;2022-07-29T09:02:21;97326.13;;;26.82;55.32
24962;BME280;12992;50.884;13.668;2022-07-29T09:04:48;97310.91;;;26.48;54.98
24962;BME280;12992;50.884;13.668;2022-07-29T09:07:17;97305.13;;;26.41;56.22
24962;BME280;12992;50.884;13.668;2022-07-29T09:09:43;97330.63;;;26.39;55.19
24962;BME280;12992;50.884;13.668;2022-07-29T09:12:12;97321.44;;;26.39;54.71
24962;BME280;12992;50.884;13.668;2022-07-29T09:14:38;97308.88;;;26.33;54.84
24962;BME280;12992;50.884;13.668;2022-07-29T09:17:04;97294.97;;;25.89;55.97
24962;BME280;12992;50.884;13.668;2022-07-29T09:19:31;97286.09;;;25.71;55.75
24962;BME280;12992;50.884;13.668;2022-07-29T09:22:00;97303.13;;;25.69;56.73
24962;BME280;12992;50.884;13.668;2022-07-29T09:24:36;97315.91;;;25.83;56.00
24962;BME280;12992;50.884;13.668;2022-07-29T09:27:11;97319.00;;;25.93;55.60
24962;BME280;12992;50.884;13.668;2022-07-29T09:29:43;97310.00;;;26.00;54.30
24962;BME280;12992;50.884;13.668;2022-07-29T09:32:09;97304.88;;;26.02;55.05
24962;BME280;12992;50.884;13.668;2022-07-29T09:34:36;97304.88;;;26.02;54.84
24962;BME280;12992;50.884;13.668;2022-07-29T09:37:02;97320.03;;;26.33;54.76
24962;BME280;12992;50.884;13.668;2022-07-29T09:39:35;97341.91;;;26.74;54.36
24962;BME280;12992;50.884;13.668;2022-07-29T09:42:03;97338.00;;;27.10;52.71
24962;BME280;12992;50.884;13.668;2022-07-29T09:44:49;97334.78;;;27.63;52.06
24962;BME280;12992;50.884;13.668;2022-07-29T09:47:16;97342.44;;;28.43;50.65
24962;BME280;12992;50.884;13.668;2022-07-29T09:49:57;97347.13;;;29.31;49.13
24962;BME280;12992;50.884;13.668;2022-07-29T09:52:29;97355.44;;;30.10;48.61
24962;BME280;12992;50.884;13.668;2022-07-29T09:55:09;97334.50;;;30.04;48.29
24962;BME280;12992;50.884;13.668;2022-07-29T09:57:35;97318.91;;;29.20;50.08
24962;BME280;12992;50.884;13.668;2022-07-29T10:00:09;97336.88;;;29.42;50.25
24962;BME280;12992;50.884;13.668;2022-07-29T10:02:42;97349.91;;;30.17;48.64
24962;BME280;12992;50.884;13.668;2022-07-29T10:05:29;97353.19;;;31.05;46.95
24962;BME280;12992;50.884;13.668;2022-07-29T10:07:57;97342.09;;;31.22;49.86
24962;BME280;12992;50.884;13.668;2022-07-29T10:10:23;97355.03;;;32.00;45.89
24962;BME280;12992;50.884;13.668;2022-07-29T10:12:57;97355.63;;;33.66;44.05
24962;BME280;12992;50.884;13.668;2022-07-29T10:15:24;97334.72;;;33.17;44.86
24962;BME280;12992;50.884;13.668;2022-07-29T10:17:52;97352.03;;;34.63;42.56
24962;BME280;12992;50.884;13.668;2022-07-29T10:20:18;97338.94;;;34.84;42.96
24962;BME280;12992;50.884;13.668;2022-07-29T10:22:44;97321.53;;;34.23;42.54
24962;BME280;12992;50.884;13.668;2022-07-29T10:25:12;97313.00;;;32.89;44.52
24962;BME280;12992;50.884;13.668;2022-07-29T10:27:37;97328.66;;;33.43;43.69
24962;BME280;12992;50.884;13.668;2022-07-29T10:30:06;97342.81;;;34.45;43.81
24962;BME280;12992;50.884;13.668;2022-07-29T10:32:49;97338.63;;;35.23;41.82
24962;BME280;12992;50.884;13.668;2022-07-29T10:41:30;97288.50;;;34.72;42.53
24962;BME280;12992;50.884;13.668;2022-07-29T10:44:13;97290.31;;;33.53;44.12
24962;BME280;12992;50.884;13.668;2022-07-29T10:46:40;97275.50;;;32.88;45.10
24962;BME280;12992;50.884;13.668;2022-07-29T10:49:16;97244.13;;;31.42;47.02
24962;BME280;12992;50.884;13.668;2022-07-29T10:51:54;97249.00;;;31.49;47.17
24962;BME280;12992;50.884;13.668;2022-07-29T10:54:43;97235.06;;;31.01;46.99
24962;BME280;12992;50.884;13.668;2022-07-29T10:57:25;97224.84;;;29.94;48.87
24962;BME280;12992;50.884;13.668;2022-07-29T11:05:21;97236.09;;;30.31;48.94
24962;BME280;12992;50.884;13.668;2022-07-29T11:08:24;97217.50;;;29.48;49.37
24962;BME280;12992;50.884;13.668;2022-07-29T11:10:52;97213.28;;;28.75;51.38
24962;BME280;12992;50.884;13.668;2022-07-29T11:16:08;97189.34;;;27.24;53.96
24962;BME280;12992;50.884;13.668;2022-07-29T11:18:33;97210.69;;;27.71;52.98
24962;BME280;12992;50.884;13.668;2022-07-29T11:20:58;97228.44;;;28.25;52.74
24962;BME280;12992;50.884;13.668;2022-07-29T11:23:31;97245.81;;;29.66;50.25
24962;BME280;12992;50.884;13.668;2022-07-29T11:31:48;97211.13;;;30.22;49.75
24962;BME280;12992;50.884;13.668;2022-07-29T11:34:21;97215.59;;;29.52;49.46
24962;BME280;12992;50.884;13.668;2022-07-29T11:39:32;97228.25;;;29.73;49.38
24962;BME280;12992;50.884;13.668;2022-07-29T11:44:57;97199.75;;;29.41;50.79
24962;BME280;12992;50.884;13.668;2022-07-29T11:47:23;97204.97;;;29.09;50.26
24962;BME280;12992;50.884;13.668;2022-07-29T11:49:53;97204.06;;;28.74;51.00
24962;BME280;12992;50.884;13.668;2022-07-29T11:52:19;97237.13;;;29.48;50.44
24962;BME280;12992;50.884;13.668;2022-07-29T11:54:47;97236.69;;;29.76;49.61
24962;BME280;12992;50.884;13.668;2022-07-29T11:57:16;97229.94;;;29.81;49.47
24962;BME280;12992;50.884;13.668;2022-07-29T11:59:44;97225.75;;;29.68;49.59
24962;BME280;12992;50.884;13.668;2022-07-29T12:02:10;97213.34;;;29.35;50.21
24962;BME280;12992;50.884;13.668;2022-07-29T12:04:52;97207.16;;;28.92;51.02
24962;BME280;12992;50.884;13.668;2022-07-29T12:07:18;97226.97;;;29.67;51.27
24962;BME280;12992;50.884;13.668;2022-07-29T12:09:51;97239.94;;;30.15;49.53
24962;BME280;12992;50.884;13.668;2022-07-29T12:12:17;97218.16;;;30.05;49.74
24962;BME280;12992;50.884;13.668;2022-07-29T12:14:43;97222.22;;;30.08;49.55
24962;BME280;12992;50.884;13.668;2022-07-29T12:17:31;97247.69;;;31.28;48.13
24962;BME280;12992;50.884;13.668;2022-07-29T12:19:59;97236.06;;;31.37;47.72
24962;BME280;12992;50.884;13.668;2022-07-29T12:22:29;97233.31;;;31.48;47.08
24962;BME280;12992;50.884;13.668;2022-07-29T12:25:01;97259.19;;;31.78;47.05
24962;BME280;12992;50.884;13.668;2022-07-29T12:27:27;97266.63;;;32.72;46.12
24962;BME280;12992;50.884;13.668;2022-07-29T12:29:57;97248.44;;;33.23;46.20
24962;BME280;12992;50.884;13.668;2022-07-29T12:32:23;97265.09;;;34.01;44.61
24962;BME280;12992;50.884;13.668;2022-07-29T12:34:49;97245.38;;;33.94;44.03
24962;BME280;12992;50.884;13.668;2022-07-29T12:37:15;97233.34;;;33.72;44.45
24962;BME280;12992;50.884;13.668;2022-07-29T12:39:41;97233.34;;;33.76;44.95
24962;BME280;12992;50.884;13.668;2022-07-29T12:42:11;97244.91;;;34.06;44.21
24962;BME280;12992;50.884;13.668;2022-07-29T12:44:50;97218.59;;;34.17;43.84
24962;BME280;12992;50.884;13.668;2022-07-29T12:47:17;97224.34;;;34.02;43.81
24962;BME280;12992;50.884;13.668;2022-07-29T12:49:43;97184.81;;;32.93;44.48
24962;BME280;12992;50.884;13.668;2022-07-29T12:52:31;97169.97;;;31.06;46.74
24962;BME280;12992;50.884;13.668;2022-07-29T12:54:57;97151.66;;;29.76;49.37
24962;BME280;12992;50.884;13.668;2022-07-29T12:57:23;97143.91;;;29.25;49.86
24962;BME280;12992;50.884;13.668;2022-07-29T13:00:07;97140.41;;;28.75;50.64
24962;BME280;12992;50.884;13.668;2022-07-29T13:02:35;97150.34;;;28.42;51.18
24962;BME280;12992;50.884;13.668;2022-07-29T13:05:01;97150.44;;;28.49;50.93
24962;BME280;12992;50.884;13.668;2022-07-29T13:07:29;97132.41;;;28.24;51.48
24962;BME280;12992;50.884;13.668;2022-07-29T13:10:15;97148.13;;;28.55;51.71
24962;BME280;12992;50.884;13.668;2022-07-29T13:13:06;97166.47;;;29.39;50.78
24962;BME280;12992;50.884;13.668;2022-07-29T13:15:34;97176.75;;;29.95;49.10
24962;BME280;12992;50.884;13.668;2022-07-29T13:17:59;97156.78;;;29.67;49.27
24962;BME280;12992;50.884;13.668;2022-07-29T13:20:27;97158.41;;;29.68;50.20
24962;BME280;12992;50.884;13.668;2022-07-29T13:22:54;97149.44;;;29.21;49.42
24962;BME280;12992;50.884;13.668;2022-07-29T13:25:31;97135.56;;;28.72;50.42
24962;BME280;12992;50.884;13.668;2022-07-29T13:27:57;97129.22;;;28.26;51.37
24962;BME280;12992;50.884;13.668;2022-07-29T13:30:23;97123.78;;;27.83;51.88